Time;durP1;ratioP1;P1;durP2;ratioP2;P2;SDS_P1;SDS_P2;PMS_P1;PMS_P2;Temp;Humidity;BMP_temperature;BMP_pressure;BME280_temperature;BME280_humidity;BME280_pressure;Samples;Min_cycle;Max_cycle;Signal;HPM_P1;HPM_P2
2023/08/28 00:02:17;;;;;;;9.02;2.85;;;19.80;99.90;;;;;;5052785;28;20056;-60
2023/08/28 00:04:43;;;;;;;10.23;2.45;;;19.80;99.90;;;;;;5052706;28;20056;-60
2023/08/28 00:07:09;;;;;;;8.10;2.53;;;19.80;99.90;;;;;;5052800;28;20078;-60
2023/08/28 00:09:34;;;;;;;6.22;1.90;;;19.80;99.90;;;;;;5052530;28;20036;-60
2023/08/28 00:12:01;;;;;;;10.68;2.40;;;19.80;99.90;;;;;;5052595;28;20025;-60
2023/08/28 00:14:27;;;;;;;4.85;1.50;;;19.70;99.90;;;;;;5052409;28;20033;-60
2023/08/28 00:16:53;;;;;;;8.85;2.20;;;19.70;99.90;;;;;;5034616;28;20581;-59
2023/08/28 00:19:19;;;;;;;7.10;2.50;;;19.70;99.90;;;;;;5052177;28;20037;-60
2023/08/28 00:21:44;;;;;;;7.40;2.20;;;19.70;99.90;;;;;;5052243;28;20035;-60
2023/08/28 00:24:10;;;;;;;9.18;2.40;;;19.70;99.90;;;;;;5052361;28;20106;-60
2023/08/28 00:26:36;;;;;;;9.45;2.53;;;19.60;99.90;;;;;;5059331;28;20040;-60
2023/08/28 00:29:02;;;;;;;9.55;2.50;;;19.60;99.90;;;;;;5072057;28;20123;-60
2023/08/28 00:31:28;;;;;;;11.70;2.38;;;19.50;99.90;;;;;;5072504;28;20028;-60
2023/08/28 00:33:54;;;;;;;9.63;2.80;;;19.50;99.90;;;;;;5072198;28;20070;-60
2023/08/28 00:36:20;;;;;;;10.30;2.15;;;19.60;99.90;;;;;;5071953;28;20024;-60
2023/08/28 00:38:45;;;;;;;10.77;2.72;;;19.50;99.90;;;;;;5071595;28;20106;-60
2023/08/28 00:41:11;;;;;;;9.80;2.60;;;19.40;99.90;;;;;;5072029;28;20099;-60
2023/08/28 00:43:37;;;;;;;11.20;2.28;;;19.10;99.90;;;;;;5072139;28;20025;-60
2023/08/28 00:46:04;;;;;;;8.45;2.10;;;19.30;99.90;;;;;;5071511;28;20493;-60
2023/08/28 00:48:29;;;;;;;11.25;3.03;;;19.50;99.90;;;;;;5071706;28;20037;-60
2023/08/28 00:50:56;;;;;;;10.52;3.00;;;19.80;99.90;;;;;;5071061;28;20031;-60
2023/08/28 00:53:23;;;;;;;10.55;2.50;;;19.80;99.90;;;;;;5071333;28;20028;-60
2023/08/28 00:55:49;;;;;;;9.50;2.60;;;19.80;99.90;;;;;;5071671;28;20112;-60
2023/08/28 00:58:16;;;;;;;7.65;2.42;;;19.80;99.90;;;;;;5071501;28;20118;-60
2023/08/28 01:00:42;;;;;;;8.57;2.20;;;19.80;99.90;;;;;;5053594;28;20039;-60
2023/08/28 01:03:09;;;;;;;11.88;2.47;;;19.80;99.90;;;;;;5071592;28;20108;-60
2023/08/28 01:06:21;;;;;;;8.80;2.20;;;20.00;99.90;;;;;;5071491;28;20072;-60
2023/08/28 01:09:14;;;;;;;10.80;2.47;;;19.90;99.90;;;;;;5009158;28;20029;-60
2023/08/28 01:12:02;;;;;;;10.25;2.50;;;20.00;99.90;;;;;;5009692;28;20040;-60
2023/08/28 01:14:29;;;;;;;8.32;2.60;;;20.00;99.90;;;;;;4987728;28;20403;-60
2023/08/28 01:17:02;;;;;;;9.75;2.83;;;19.90;99.90;;;;;;4993017;28;20641;-60
2023/08/28 01:19:37;;;;;;;11.10;2.58;;;19.70;99.90;;;;;;5009373;28;20045;-60
2023/08/28 01:22:10;;;;;;;8.10;2.30;;;19.60;99.90;;;;;;5009189;28;20092;-60
2023/08/28 01:24:43;;;;;;;9.18;2.33;;;19.60;99.90;;;;;;5009456;28;20025;-60
2023/08/28 01:27:09;;;;;;;8.82;2.50;;;19.50;99.90;;;;;;5009038;28;20054;-60
2023/08/28 01:29:35;;;;;;;7.72;2.47;;;19.50;99.90;;;;;;5009765;28;20045;-60
2023/08/28 01:32:01;;;;;;;8.20;2.63;;;19.50;99.90;;;;;;5009371;28;20026;-60
2023/08/28 01:34:26;;;;;;;8.52;2.38;;;19.50;99.90;;;;;;5009375;28;20065;-59
2023/08/28 01:36:58;;;;;;;10.35;2.42;;;19.50;99.90;;;;;;5008943;28;20437;-60
2023/08/28 01:39:31;;;;;;;7.97;2.70;;;19.60;99.90;;;;;;5029963;28;20045;-60
2023/08/28 01:41:58;;;;;;;9.45;2.47;;;19.60;99.90;;;;;;5050917;28;20448;-60
2023/08/28 01:44:27;;;;;;;10.05;2.70;;;19.50;99.90;;;;;;5051068;28;20032;-60
2023/08/28 01:46:53;;;;;;;10.20;2.17;;;19.50;99.90;;;;;;5051416;28;20398;-60
2023/08/28 01:49:18;;;;;;;8.82;2.85;;;19.50;99.90;;;;;;5051080;28;20096;-60
2023/08/28 01:51:44;;;;;;;8.27;2.58;;;19.40;99.90;;;;;;5050635;28;20511;-60
2023/08/28 01:54:10;;;;;;;7.53;2.33;;;19.50;99.90;;;;;;5051187;28;20498;-60
2023/08/28 01:56:35;;;;;;;10.50;2.38;;;19.40;99.90;;;;;;5050992;28;20109;-60
2023/08/28 01:59:02;;;;;;;11.18;2.85;;;19.50;99.90;;;;;;5051369;28;20028;-60
2023/08/28 02:01:28;;;;;;;8.18;2.45;;;19.50;99.90;;;;;;5050854;28;20026;-60
2023/08/28 02:03:54;;;;;;;11.85;2.67;;;19.60;99.90;;;;;;5036100;28;20498;-60
2023/08/28 02:06:20;;;;;;;9.88;2.90;;;19.80;99.90;;;;;;5054549;28;20086;-60
2023/08/28 02:08:46;;;;;;;9.43;2.47;;;19.90;99.90;;;;;;5054818;28;20037;-60
2023/08/28 02:11:12;;;;;;;10.35;2.75;;;19.90;99.90;;;;;;5055220;28;20067;-60
2023/08/28 02:13:37;;;;;;;8.23;2.47;;;20.00;99.90;;;;;;5054809;28;20108;-60
2023/08/28 02:16:03;;;;;;;10.43;2.47;;;20.00;99.90;;;;;;5071127;28;20020;-60
2023/08/28 02:18:30;;;;;;;7.50;2.20;;;20.10;99.90;;;;;;5074462;28;20032;-60
2023/08/28 02:20:56;;;;;;;12.52;2.78;;;20.10;99.90;;;;;;5074177;28;20028;-60
2023/08/28 02:23:22;;;;;;;10.95;2.70;;;20.10;99.90;;;;;;5074519;28;20024;-60
2023/08/28 02:25:48;;;;;;;12.23;3.00;;;20.20;99.90;;;;;;5074654;28;20028;-60
2023/08/28 02:28:18;;;;;;;9.82;2.28;;;20.20;99.90;;;;;;5074575;28;20120;-60
2023/08/28 02:30:45;;;;;;;8.98;2.30;;;20.10;99.90;;;;;;5074321;28;20101;-60
2023/08/28 02:33:11;;;;;;;7.13;1.98;;;20.00;99.90;;;;;;5074490;28;20036;-60
2023/08/28 02:35:37;;;;;;;9.30;2.63;;;19.90;99.90;;;;;;5074374;28;20020;-60
2023/08/28 02:38:02;;;;;;;9.80;2.38;;;19.80;99.90;;;;;;5074349;28;20497;-59
2023/08/28 02:40:29;;;;;;;7.95;2.33;;;19.80;99.90;;;;;;5074263;28;20082;-60
2023/08/28 02:42:55;;;;;;;11.32;2.72;;;19.70;99.90;;;;;;5074080;28;20103;-60
2023/08/28 02:45:21;;;;;;;8.50;2.30;;;19.70;99.90;;;;;;5074265;28;20035;-60
2023/08/28 02:47:47;;;;;;;12.55;2.47;;;19.60;99.90;;;;;;5074214;28;20120;-60
2023/08/28 02:50:12;;;;;;;10.05;2.67;;;19.70;99.90;;;;;;5073614;28;20540;-60
2023/08/28 02:52:38;;;;;;;12.52;2.85;;;19.70;99.90;;;;;;5074274;28;20481;-60
2023/08/28 02:55:04;;;;;;;9.25;2.40;;;19.70;99.90;;;;;;5073780;28;20040;-60
2023/08/28 02:57:30;;;;;;;11.50;2.50;;;19.70;99.90;;;;;;5073983;28;20497;-60
2023/08/28 02:59:55;;;;;;;11.63;2.70;;;19.70;99.90;;;;;;5073887;28;20029;-60
2023/08/28 03:02:21;;;;;;;11.90;2.35;;;19.60;99.90;;;;;;5073914;28;20031;-60
2023/08/28 03:04:46;;;;;;;11.40;2.65;;;19.60;99.90;;;;;;5073586;28;20025;-60
2023/08/28 03:07:12;;;;;;;9.75;2.20;;;19.70;99.90;;;;;;5074110;28;20393;-60
2023/08/28 03:09:38;;;;;;;8.18;2.20;;;19.60;99.90;;;;;;5073585;28;20446;-60
2023/08/28 03:12:04;;;;;;;10.85;2.40;;;19.60;99.90;;;;;;5073705;28;20515;-59
2023/08/28 03:14:30;;;;;;;7.25;2.53;;;19.60;99.90;;;;;;5072953;28;20111;-60
2023/08/28 03:16:55;;;;;;;9.35;2.65;;;19.60;99.90;;;;;;5073664;28;20143;-60
2023/08/28 03:19:21;;;;;;;7.95;2.58;;;19.50;99.90;;;;;;5073164;28;20079;-60
2023/08/28 03:21:47;;;;;;;10.88;2.70;;;19.50;99.90;;;;;;5073546;28;20063;-60
2023/08/28 03:24:12;;;;;;;9.32;2.28;;;19.70;99.90;;;;;;5073762;28;20052;-60
2023/08/28 03:26:38;;;;;;;9.45;2.58;;;19.80;99.90;;;;;;5073344;28;20051;-60
2023/08/28 03:29:04;;;;;;;7.20;1.95;;;20.00;99.90;;;;;;5073286;28;20020;-60
2023/08/28 03:31:29;;;;;;;8.55;2.20;;;20.20;99.90;;;;;;5073011;28;20085;-60
2023/08/28 03:33:56;;;;;;;9.02;2.22;;;20.10;99.90;;;;;;5072923;28;20100;-60
2023/08/28 03:36:22;;;;;;;7.32;2.00;;;20.10;99.90;;;;;;5073338;28;20333;-59
2023/08/28 03:38:47;;;;;;;9.05;2.47;;;20.20;99.90;;;;;;5073313;28;20389;-60
2023/08/28 03:41:13;;;;;;;6.78;2.15;;;20.30;99.90;;;;;;5073273;28;20107;-60
2023/08/28 03:43:39;;;;;;;8.38;2.25;;;20.30;99.90;;;;;;5073129;28;20028;-59
2023/08/28 03:46:05;;;;;;;7.85;2.15;;;20.30;99.90;;;;;;5073417;28;20103;-59
2023/08/28 03:48:30;;;;;;;10.70;2.28;;;20.30;99.90;;;;;;5072758;28;20420;-60
2023/08/28 03:50:56;;;;;;;8.88;2.53;;;20.30;99.90;;;;;;5055047;28;20055;-60
2023/08/28 03:53:22;;;;;;;9.63;2.42;;;20.30;99.90;;;;;;5073141;28;20131;-60
2023/08/28 03:55:48;;;;;;;8.60;2.30;;;20.30;99.90;;;;;;5072936;28;20089;-59
2023/08/28 03:58:13;;;;;;;12.52;2.53;;;20.10;99.90;;;;;;5072734;28;20428;-60
2023/08/28 04:00:39;;;;;;;10.68;2.40;;;20.00;99.90;;;;;;5072713;28;20033;-60
2023/08/28 04:03:05;;;;;;;9.40;2.50;;;19.90;99.90;;;;;;5072423;28;20089;-58
2023/08/28 04:05:35;;;;;;;10.00;2.47;;;19.80;99.90;;;;;;5072557;28;20397;-60
2023/08/28 04:08:01;;;;;;;8.32;2.40;;;19.80;99.90;;;;;;5072748;28;20052;-60
2023/08/28 04:10:27;;;;;;;10.52;2.45;;;19.70;99.90;;;;;;5072704;28;20059;-59
2023/08/28 04:12:52;;;;;;;11.65;2.55;;;19.70;99.90;;;;;;5072582;28;20439;-60
2023/08/28 04:15:19;;;;;;;12.45;2.55;;;19.70;99.90;;;;;;5072472;28;20037;-60
2023/08/28 04:17:45;;;;;;;11.77;2.60;;;19.40;99.90;;;;;;5071977;28;20036;-60
2023/08/28 04:20:13;;;;;;;11.05;2.33;;;19.30;99.90;;;;;;5072245;28;20433;-60
2023/08/28 04:22:45;;;;;;;9.38;2.40;;;19.30;99.90;;;;;;5072325;28;20485;-60
2023/08/28 04:25:13;;;;;;;7.93;1.92;;;19.30;99.90;;;;;;5072302;28;20020;-60
2023/08/28 04:27:39;;;;;;;7.75;2.00;;;19.40;99.90;;;;;;5072435;28;20053;-60
2023/08/28 04:30:06;;;;;;;8.32;2.08;;;19.30;99.90;;;;;;5072121;28;20024;-60
2023/08/28 04:32:32;;;;;;;10.20;2.08;;;19.30;99.90;;;;;;5071769;28;20032;-60
2023/08/28 04:34:58;;;;;;;7.80;2.38;;;19.30;99.90;;;;;;5072074;28;20031;-60
2023/08/28 04:37:26;;;;;;;8.93;2.50;;;19.30;99.90;;;;;;5071980;28;20024;-60
2023/08/28 04:39:52;;;;;;;10.57;2.53;;;19.30;99.90;;;;;;5072023;28;20036;-60
2023/08/28 04:42:18;;;;;;;9.25;2.50;;;19.40;99.90;;;;;;5071909;28;20032;-60
2023/08/28 04:44:44;;;;;;;12.43;2.45;;;19.60;99.90;;;;;;5071680;28;20031;-58
2023/08/28 04:47:10;;;;;;;11.25;2.28;;;19.70;99.90;;;;;;5071835;28;20468;-61
2023/08/28 04:49:36;;;;;;;6.63;1.92;;;19.80;99.90;;;;;;5072126;28;20386;-60
2023/08/28 04:52:03;;;;;;;6.85;1.90;;;19.80;99.90;;;;;;5071841;28;20032;-60
2023/08/28 04:54:28;;;;;;;7.45;1.80;;;19.80;99.90;;;;;;5071679;28;20032;-60
2023/08/28 04:56:57;;;;;;;5.95;1.95;;;19.80;99.90;;;;;;5071706;28;20062;-60
2023/08/28 04:59:22;;;;;;;8.73;2.33;;;19.90;99.90;;;;;;5071133;28;20085;-60
2023/08/28 05:01:48;;;;;;;11.80;2.88;;;19.90;99.90;;;;;;5071724;28;20013;-59
2023/08/28 05:04:14;;;;;;;13.02;3.00;;;19.70;99.90;;;;;;5071505;28;20477;-59
2023/08/28 05:06:39;;;;;;;9.43;2.72;;;19.50;99.90;;;;;;5071566;28;20028;-60
2023/08/28 05:09:06;;;;;;;9.20;2.38;;;19.30;99.90;;;;;;5071567;28;20485;-59
2023/08/28 05:11:31;;;;;;;6.60;2.20;;;19.40;99.90;;;;;;5071933;28;20077;-60
2023/08/28 05:13:57;;;;;;;6.10;2.30;;;19.40;99.90;;;;;;5071174;28;20106;-60
2023/08/28 05:16:23;;;;;;;9.77;2.55;;;19.30;99.90;;;;;;5071096;28;20112;-60
2023/08/28 05:18:49;;;;;;;9.27;2.58;;;19.20;99.90;;;;;;5071175;28;20031;-60
2023/08/28 05:21:15;;;;;;;7.18;2.40;;;19.30;99.90;;;;;;5071666;28;20029;-60
2023/08/28 05:23:41;;;;;;;10.65;3.33;;;19.30;99.90;;;;;;5071389;28;20028;-60
2023/08/28 05:26:07;;;;;;;8.45;2.65;;;19.30;99.90;;;;;;5071178;28;20083;-60
2023/08/28 05:28:35;;;;;;;12.52;3.13;;;19.30;99.90;;;;;;5070984;28;20052;-60
2023/08/28 05:31:04;;;;;;;9.20;2.47;;;19.30;99.90;;;;;;5071440;28;20421;-60
2023/08/28 05:33:30;;;;;;;8.75;2.55;;;19.40;99.90;;;;;;5071299;28;20393;-60
2023/08/28 05:35:56;;;;;;;6.38;2.17;;;19.30;99.90;;;;;;5071144;28;20028;-60
2023/08/28 05:38:22;;;;;;;6.18;2.00;;;19.20;99.90;;;;;;5070535;28;20036;-60
2023/08/28 05:40:47;;;;;;;7.63;2.05;;;19.10;99.90;;;;;;5071607;28;20028;-60
2023/08/28 05:43:14;;;;;;;10.63;2.80;;;19.00;99.90;;;;;;5070861;28;20066;-58
2023/08/28 05:45:40;;;;;;;16.95;3.35;;;19.00;99.90;;;;;;5071018;28;20032;-58
2023/08/28 05:48:06;;;;;;;13.52;3.20;;;18.90;99.90;;;;;;5071077;28;20024;-58
2023/08/28 05:50:31;;;;;;;15.02;3.60;;;18.90;99.90;;;;;;5071231;28;20070;-58
2023/08/28 05:52:57;;;;;;;10.38;2.53;;;18.90;99.90;;;;;;5053050;28;20056;-59
2023/08/28 05:55:23;;;;;;;10.40;2.72;;;19.00;99.90;;;;;;5071020;28;20090;-59
2023/08/28 05:57:48;;;;;;;15.82;2.90;;;19.10;99.90;;;;;;5070568;28;20029;-58
2023/08/28 06:00:15;;;;;;;7.35;2.40;;;19.10;99.90;;;;;;5070985;28;20025;-59
2023/08/28 06:02:41;;;;;;;7.60;2.47;;;19.30;99.90;;;;;;5071201;28;20047;-57
2023/08/28 06:05:08;;;;;;;11.45;2.58;;;19.40;99.90;;;;;;5071011;28;20432;-59
2023/08/28 06:07:34;;;;;;;8.10;2.40;;;19.70;99.90;;;;;;5070936;28;20021;-58
2023/08/28 06:10:00;;;;;;;11.13;2.47;;;19.70;99.90;;;;;;5071267;28;20393;-59
2023/08/28 06:12:26;;;;;;;10.52;2.58;;;19.90;99.90;;;;;;5070647;28;20025;-59
2023/08/28 06:14:51;;;;;;;8.27;2.50;;;19.90;99.90;;;;;;5070405;28;20036;-60
2023/08/28 06:17:17;;;;;;;9.55;2.65;;;19.90;99.90;;;;;;5070378;28;20009;-60
2023/08/28 06:19:43;;;;;;;6.40;2.33;;;20.00;99.90;;;;;;5070328;28;20037;-59
2023/08/28 06:22:09;;;;;;;8.07;2.35;;;19.90;99.90;;;;;;5070511;28;20025;-60
2023/08/28 06:24:34;;;;;;;8.98;2.40;;;20.00;99.90;;;;;;5070791;28;20099;-60
2023/08/28 06:27:00;;;;;;;8.07;2.63;;;20.00;99.90;;;;;;5070184;28;20506;-60
2023/08/28 06:29:26;;;;;;;8.18;2.47;;;20.10;99.90;;;;;;5070617;28;20036;-59
2023/08/28 06:31:52;;;;;;;11.30;2.78;;;20.20;99.90;;;;;;5070447;28;20037;-60
2023/08/28 06:34:18;;;;;;;8.05;2.10;;;20.20;99.90;;;;;;5069161;28;20052;-60
2023/08/28 06:36:45;;;;;;;9.35;2.40;;;20.20;99.90;;;;;;5059365;28;20056;-61
2023/08/28 06:39:11;;;;;;;7.95;2.45;;;20.10;99.90;;;;;;5055887;28;20055;-61
2023/08/28 06:41:38;;;;;;;10.00;2.40;;;20.10;99.90;;;;;;5066972;28;20016;-60
2023/08/28 06:44:04;;;;;;;8.23;2.80;;;20.10;99.90;;;;;;5070206;28;20116;-60
2023/08/28 06:46:31;;;;;;;10.88;2.38;;;20.00;99.90;;;;;;5070308;28;20028;-59
2023/08/28 06:48:56;;;;;;;14.18;3.70;;;20.00;99.90;;;;;;5070434;28;20028;-59
2023/08/28 06:51:22;;;;;;;7.85;2.17;;;19.80;99.90;;;;;;5073713;28;20078;-59
2023/08/28 06:53:50;;;;;;;11.90;2.22;;;19.70;99.90;;;;;;5074107;28;20054;-59
2023/08/28 06:56:16;;;;;;;11.68;2.70;;;19.50;99.90;;;;;;5073979;28;20020;-59
2023/08/28 06:58:42;;;;;;;9.73;2.45;;;19.40;99.90;;;;;;5073675;28;20063;-59
2023/08/28 07:01:07;;;;;;;7.82;2.00;;;19.30;99.90;;;;;;5074242;28;20044;-59
2023/08/28 07:03:33;;;;;;;9.82;2.20;;;19.40;99.90;;;;;;5073361;28;20024;-60
2023/08/28 07:05:59;;;;;;;10.57;2.30;;;19.50;99.90;;;;;;5074232;28;20024;-60
2023/08/28 07:08:25;;;;;;;9.50;2.45;;;19.50;99.90;;;;;;5073636;28;20033;-60
2023/08/28 07:10:51;;;;;;;8.43;2.38;;;19.40;99.90;;;;;;5073508;28;20044;-60
2023/08/28 07:13:17;;;;;;;11.18;2.75;;;19.40;99.90;;;;;;5073759;28;20123;-59
2023/08/28 07:15:43;;;;;;;10.60;2.42;;;19.50;99.90;;;;;;5073328;28;20025;-60
2023/08/28 07:18:08;;;;;;;8.57;2.30;;;19.50;99.90;;;;;;5073197;28;20503;-58
2023/08/28 07:20:35;;;;;;;10.65;2.25;;;19.60;99.90;;;;;;5073506;28;20059;-60
2023/08/28 07:23:00;;;;;;;7.25;2.22;;;19.60;99.90;;;;;;5073059;28;20111;-57
2023/08/28 07:25:27;;;;;;;7.80;2.15;;;19.70;99.90;;;;;;5073046;28;20141;-60
2023/08/28 07:27:54;;;;;;;8.25;2.30;;;19.80;99.90;;;;;;5072637;28;20061;-58
2023/08/28 07:30:20;;;;;;;9.82;2.40;;;20.00;99.90;;;;;;5073020;28;20024;-60
2023/08/28 07:32:46;;;;;;;8.40;2.40;;;20.20;99.90;;;;;;5073289;28;20141;-59
2023/08/28 07:35:12;;;;;;;6.85;2.03;;;20.30;99.90;;;;;;5073083;28;20116;-60
2023/08/28 07:37:38;;;;;;;10.52;2.78;;;20.40;99.90;;;;;;5073012;28;20043;-60
2023/08/28 07:40:05;;;;;;;9.85;2.47;;;20.40;99.90;;;;;;5072856;28;20037;-59
2023/08/28 07:42:32;;;;;;;10.18;2.42;;;20.40;99.90;;;;;;5073481;28;20021;-60
2023/08/28 07:44:58;;;;;;;9.10;2.40;;;20.40;99.90;;;;;;5072929;28;20525;-60
2023/08/28 07:47:25;;;;;;;8.32;2.42;;;20.50;99.90;;;;;;5072918;28;20028;-59
2023/08/28 07:49:51;;;;;;;7.60;2.08;;;20.50;99.90;;;;;;5073098;28;20393;-59
2023/08/28 07:52:17;;;;;;;6.20;1.90;;;20.60;99.90;;;;;;5072867;28;20032;-60
2023/08/28 07:54:42;;;;;;;7.07;2.20;;;20.70;99.90;;;;;;5072915;28;20021;-59
2023/08/28 07:57:08;;;;;;;9.15;1.92;;;20.60;99.90;;;;;;5072984;28;20033;-60
2023/08/28 07:59:34;;;;;;;8.40;2.22;;;20.70;99.90;;;;;;5072606;28;20028;-60
2023/08/28 08:02:00;;;;;;;6.82;2.05;;;20.60;99.90;;;;;;5072388;28;20036;-60
2023/08/28 08:04:26;;;;;;;6.80;2.17;;;20.60;99.90;;;;;;5072607;28;20103;-60
2023/08/28 08:06:52;;;;;;;8.35;2.45;;;20.60;99.90;;;;;;5072659;28;20030;-60
2023/08/28 08:09:18;;;;;;;9.82;2.45;;;20.40;99.90;;;;;;5072627;28;20108;-59
2023/08/28 08:11:44;;;;;;;9.43;2.25;;;20.20;99.90;;;;;;5072599;28;20025;-60
2023/08/28 08:14:09;;;;;;;8.82;1.90;;;20.30;99.90;;;;;;5072317;28;20073;-60
2023/08/28 08:16:35;;;;;;;7.65;1.80;;;20.30;99.90;;;;;;5072352;28;20103;-59
2023/08/28 08:19:01;;;;;;;7.25;1.80;;;20.30;99.90;;;;;;5072342;28;20470;-60
2023/08/28 08:21:26;;;;;;;7.25;1.90;;;20.30;99.90;;;;;;5072220;28;20503;-60
2023/08/28 08:23:55;;;;;;;5.93;1.88;;;20.40;99.90;;;;;;5071909;28;20029;-59
2023/08/28 08:26:21;;;;;;;7.38;2.00;;;20.40;99.90;;;;;;5072115;28;20044;-60
2023/08/28 08:28:47;;;;;;;7.40;2.00;;;20.40;99.90;;;;;;5072209;28;20021;-59
2023/08/28 08:31:13;;;;;;;6.25;2.00;;;20.20;99.90;;;;;;5072661;28;20417;-59
2023/08/28 08:33:38;;;;;;;6.30;2.10;;;20.20;99.90;;;;;;5072182;28;20449;-60
2023/08/28 08:36:05;;;;;;;6.22;1.88;;;20.10;99.90;;;;;;5072108;28;20488;-59
2023/08/28 08:38:30;;;;;;;12.25;2.75;;;20.10;99.90;;;;;;5071690;28;20063;-60
2023/08/28 08:40:58;;;;;;;8.48;2.25;;;20.00;99.90;;;;;;5071777;28;20481;-59
2023/08/28 08:43:27;;;;;;;6.82;2.10;;;19.90;99.90;;;;;;5071935;28;20144;-60
2023/08/28 08:46:00;;;;;;;7.25;1.77;;;20.00;99.90;;;;;;5071956;28;20024;-60
2023/08/28 08:48:27;;;;;;;6.80;2.23;;;20.20;99.90;;;;;;5071933;28;20052;-59
2023/08/28 08:51:00;;;;;;;7.18;1.80;;;20.50;99.90;;;;;;5071699;28;20313;-60
2023/08/28 08:53:32;;;;;;;4.90;1.67;;;20.70;99.90;;;;;;5071415;28;20354;-59
2023/08/28 08:56:01;;;;;;;7.30;1.98;;;20.90;99.90;;;;;;5071739;28;20396;-60
2023/08/28 08:58:27;;;;;;;6.22;1.80;;;21.00;99.90;;;;;;5071679;28;20032;-60
2023/08/28 09:00:54;;;;;;;6.07;1.98;;;21.10;99.90;;;;;;5072044;28;20035;-59
2023/08/28 09:03:21;;;;;;;6.15;2.15;;;21.20;99.90;;;;;;5071584;28;20021;-59
2023/08/28 09:05:49;;;;;;;5.28;1.80;;;21.20;99.90;;;;;;5071293;28;20033;-59
2023/08/28 09:08:15;;;;;;;6.03;2.00;;;21.30;99.90;;;;;;5053571;28;20048;-59
2023/08/28 09:10:45;;;;;;;6.60;1.80;;;21.30;99.90;;;;;;5071628;28;20059;-59
2023/08/28 09:13:11;;;;;;;4.07;1.45;;;21.20;99.90;;;;;;5070637;28;20028;-60
2023/08/28 09:15:36;;;;;;;4.50;1.75;;;21.20;99.90;;;;;;5071622;28;20036;-60
2023/08/28 09:18:03;;;;;;;3.88;1.45;;;21.20;99.90;;;;;;5071349;28;20044;-60
2023/08/28 09:20:29;;;;;;;7.75;1.85;;;21.10;99.90;;;;;;5070919;28;20027;-60
2023/08/28 09:22:55;;;;;;;4.43;1.90;;;21.00;99.90;;;;;;5071584;28;20029;-59
2023/08/28 09:25:22;;;;;;;3.80;1.38;;;21.00;99.90;;;;;;5053339;28;20025;-59
2023/08/28 09:27:51;;;;;;;6.97;1.92;;;21.00;99.90;;;;;;5071398;28;20059;-60
2023/08/28 09:30:28;;;;;;;5.80;2.05;;;20.90;99.90;;;;;;5071303;28;20032;-60
2023/08/28 09:32:54;;;;;;;6.22;1.77;;;20.90;99.90;;;;;;5071267;28;20020;-60
2023/08/28 09:35:20;;;;;;;5.95;1.98;;;20.90;99.90;;;;;;5070970;28;20366;-60
2023/08/28 09:38:07;;;;;;;4.38;1.70;;;20.80;99.90;;;;;;5053425;28;20039;-60
2023/08/28 09:40:35;;;;;;;6.30;1.80;;;20.90;99.90;;;;;;5070610;28;20044;-60
2023/08/28 09:43:08;;;;;;;5.10;1.58;;;20.90;99.90;;;;;;5071125;28;20537;-60
2023/08/28 09:45:34;;;;;;;5.57;1.70;;;20.90;99.90;;;;;;5070932;28;20036;-60
2023/08/28 09:48:03;;;;;;;5.55;2.00;;;20.90;99.90;;;;;;5071017;28;20024;-60
2023/08/28 09:50:31;;;;;;;5.20;1.90;;;20.90;99.90;;;;;;5071035;28;20028;-60
2023/08/28 09:53:13;;;;;;;3.78;1.65;;;20.90;99.90;;;;;;5071034;28;20028;-60
2023/08/28 09:55:49;;;;;;;5.97;1.80;;;20.90;99.90;;;;;;5070567;28;20040;-60
2023/08/28 09:58:15;;;;;;;5.57;2.42;;;21.00;99.90;;;;;;5070969;28;20035;-58
2023/08/28 10:00:42;;;;;;;6.35;2.20;;;21.00;99.90;;;;;;5070970;28;20721;-59
2023/08/28 10:03:09;;;;;;;5.57;2.10;;;21.20;99.90;;;;;;5070830;28;20023;-59
2023/08/28 10:05:40;;;;;;;7.35;2.42;;;21.40;99.90;;;;;;5070443;28;20024;-60
2023/08/28 10:08:07;;;;;;;7.80;2.20;;;21.50;99.90;;;;;;5070529;28;20017;-60
2023/08/28 10:10:34;;;;;;;5.18;1.73;;;21.60;99.90;;;;;;5070618;28;20032;-59
2023/08/28 10:13:04;;;;;;;4.75;1.65;;;21.70;99.90;;;;;;5070904;28;20024;-60
2023/08/28 10:15:31;;;;;;;4.70;1.80;;;21.70;99.90;;;;;;5082084;28;20519;-58
2023/08/28 10:18:03;;;;;;;7.50;2.05;;;21.90;99.90;;;;;;5090128;28;20031;-60
2023/08/28 10:20:30;;;;;;;5.05;1.60;;;21.90;99.90;;;;;;5078225;28;20024;-60
2023/08/28 10:22:58;;;;;;;6.72;1.95;;;22.00;99.90;;;;;;5070900;28;20028;-60
2023/08/28 10:25:25;;;;;;;4.22;1.52;;;22.00;99.90;;;;;;5074291;28;20064;-59
2023/08/28 10:27:53;;;;;;;5.22;1.83;;;21.90;99.90;;;;;;5074673;28;20053;-59
2023/08/28 10:30:21;;;;;;;3.83;1.50;;;22.00;99.90;;;;;;5074451;28;20397;-59
2023/08/28 10:32:49;;;;;;;5.65;2.22;;;22.00;99.90;;;;;;5074300;28;20025;-58
2023/08/28 10:35:16;;;;;;;5.45;1.83;;;21.80;99.90;;;;;;5074578;28;20431;-59
2023/08/28 10:37:43;;;;;;;6.35;2.30;;;21.80;99.90;;;;;;5074102;28;20567;-59
2023/08/28 10:40:11;;;;;;;5.60;1.90;;;21.80;99.90;;;;;;5074377;28;20031;-60
2023/08/28 10:42:38;;;;;;;5.78;2.30;;;21.70;99.90;;;;;;5074430;28;20024;-60
2023/08/28 10:45:04;;;;;;;7.28;2.72;;;21.70;99.90;;;;;;5074334;28;20029;-59
2023/08/28 10:47:30;;;;;;;6.80;1.80;;;21.70;99.90;;;;;;5073076;28;20025;-60
2023/08/28 10:49:56;;;;;;;4.80;1.83;;;21.70;99.90;;;;;;5073734;28;20524;-60
2023/08/28 10:52:23;;;;;;;4.63;1.90;;;21.70;99.90;;;;;;5074197;28;20047;-60
2023/08/28 10:54:50;;;;;;;4.47;1.85;;;21.70;99.90;;;;;;5074168;28;20021;-60
2023/08/28 10:57:27;;;;;;;5.38;1.83;;;21.60;99.90;;;;;;5074421;28;20033;-60
2023/08/28 10:59:53;;;;;;;3.55;1.60;;;21.60;99.90;;;;;;5073893;28;20109;-59
2023/08/28 11:02:19;;;;;;;3.60;1.65;;;21.60;99.90;;;;;;5073728;28;20892;-59
2023/08/28 11:04:45;;;;;;;3.65;1.75;;;21.70;99.90;;;;;;5073855;28;20056;-58
2023/08/28 11:07:23;;;;;;;4.03;1.70;;;21.70;99.90;;;;;;5073970;28;20118;-59
2023/08/28 11:09:49;;;;;;;3.55;1.65;;;21.60;99.90;;;;;;5074205;28;20024;-60
2023/08/28 11:12:18;;;;;;;4.68;1.60;;;21.60;99.90;;;;;;5073879;28;20040;-60
2023/08/28 11:14:52;;;;;;;5.22;1.50;;;21.60;99.90;;;;;;5079279;28;20028;-60
2023/08/28 11:17:20;;;;;;;6.10;1.90;;;21.60;99.90;;;;;;5093639;28;20024;-60
2023/08/28 11:19:55;;;;;;;5.57;2.00;;;21.60;99.90;;;;;;5087466;28;20040;-60
2023/08/28 11:22:34;;;;;;;5.15;1.88;;;21.80;99.90;;;;;;5073481;28;20028;-60
2023/08/28 11:25:04;;;;;;;5.18;1.80;;;22.00;99.90;;;;;;5072880;28;20106;-60
2023/08/28 11:27:33;;;;;;;5.13;2.03;;;22.00;99.90;;;;;;5073089;28;20048;-60
2023/08/28 11:30:02;;;;;;;3.55;1.63;;;22.00;99.90;;;;;;5073028;28;20023;-59
2023/08/28 11:32:31;;;;;;;5.35;1.90;;;22.10;99.90;;;;;;5072912;28;20040;-59
2023/08/28 11:35:04;;;;;;;4.88;2.05;;;22.20;99.90;;;;;;5072748;28;20501;-58
2023/08/28 11:37:37;;;;;;;5.47;2.17;;;22.10;99.90;;;;;;5073526;28;20090;-60
2023/08/28 11:40:08;;;;;;;4.68;1.65;;;22.10;99.90;;;;;;5073003;28;20041;-59
2023/08/28 11:42:35;;;;;;;3.25;1.70;;;22.30;99.90;;;;;;5073582;28;20025;-60
2023/08/28 11:45:00;;;;;;;2.22;1.20;;;22.30;99.90;;;;;;5073157;28;20577;-60
2023/08/28 11:47:30;;;;;;;2.97;1.15;;;22.20;99.90;;;;;;5072663;28;20111;-59
2023/08/28 11:49:57;;;;;;;5.03;2.05;;;22.30;99.90;;;;;;5073366;28;20044;-60
2023/08/28 11:52:24;;;;;;;3.70;1.42;;;22.40;99.90;;;;;;5072958;28;20037;-60
2023/08/28 11:54:50;;;;;;;4.05;1.50;;;22.40;99.90;;;;;;5072922;28;20101;-60
2023/08/28 11:57:18;;;;;;;4.25;1.45;;;22.30;99.90;;;;;;5072889;28;20430;-60
2023/08/28 11:59:48;;;;;;;4.40;1.73;;;22.20;99.90;;;;;;5072739;28;20045;-59
2023/08/28 12:02:15;;;;;;;2.85;1.30;;;22.10;99.90;;;;;;5072786;28;20143;-60
2023/08/28 12:04:42;;;;;;;3.78;1.48;;;22.20;99.90;;;;;;5054796;28;20422;-60
2023/08/28 12:07:17;;;;;;;3.50;1.60;;;22.30;99.90;;;;;;5072783;28;20025;-60
2023/08/28 12:09:45;;;;;;;4.93;1.60;;;22.20;99.90;;;;;;5072730;28;20033;-60
2023/08/28 12:12:13;;;;;;;3.83;1.60;;;22.10;99.90;;;;;;5072687;28;20045;-60
2023/08/28 12:14:42;;;;;;;5.22;1.58;;;22.00;99.90;;;;;;5072102;28;20107;-60
2023/08/28 12:17:08;;;;;;;3.63;1.30;;;21.90;99.90;;;;;;5072511;28;20033;-60
2023/08/28 12:19:34;;;;;;;4.55;1.80;;;22.00;99.90;;;;;;5072514;28;20111;-60
2023/08/28 12:22:07;;;;;;;4.43;1.77;;;22.10;99.90;;;;;;5072421;28;20020;-60
2023/08/28 12:24:32;;;;;;;3.47;1.65;;;22.10;99.90;;;;;;5064320;28;20104;-59
2023/08/28 12:26:58;;;;;;;5.47;1.98;;;21.90;99.90;;;;;;5072241;28;20590;-60
2023/08/28 12:29:25;;;;;;;4.50;1.65;;;22.00;99.90;;;;;;5092030;28;20558;-60
2023/08/28 12:31:50;;;;;;;3.60;1.58;;;22.10;99.90;;;;;;5092863;28;20377;-60
2023/08/28 12:34:16;;;;;;;3.70;1.90;;;22.10;99.90;;;;;;5092388;28;20032;-60
2023/08/28 12:36:45;;;;;;;3.60;1.58;;;22.20;99.90;;;;;;5092469;28;20051;-60
2023/08/28 12:39:21;;;;;;;6.78;2.00;;;22.50;99.90;;;;;;5092261;28;20452;-60
2023/08/28 12:41:51;;;;;;;3.20;1.60;;;22.60;99.90;;;;;;5092354;28;20055;-60
2023/08/28 12:44:17;;;;;;;4.47;1.80;;;22.40;99.90;;;;;;5091898;28;20438;-60
2023/08/28 12:46:43;;;;;;;5.15;1.60;;;22.50;99.90;;;;;;5091561;28;20032;-60